Time;durP1;ratioP1;P1;durP2;ratioP2;P2;SDS_P1;SDS_P2;PMS_P1;PMS_P2;Temp;Humidity;BMP_temperature;BMP_pressure;BME280_temperature;BME280_humidity;BME280_pressure;Samples;Min_cycle;Max_cycle;Signal;HPM_P1;HPM_P2
2021/05/12 00:00:45;;;;;;;21.33;18.27;;;11.90;87.50;;;;;;5017279;28;20033;-75
2021/05/12 00:03:11;;;;;;;22.10;19.80;;;11.90;87.60;;;;;;5003069;28;20073;-75
2021/05/12 00:05:36;;;;;;;23.30;19.48;;;11.80;87.70;;;;;;5032437;28;20077;-78
2021/05/12 00:08:02;;;;;;;22.65;19.13;;;11.80;87.60;;;;;;5019402;28;20537;-75
2021/05/12 00:10:28;;;;;;;22.90;19.33;;;11.80;87.60;;;;;;5017446;28;20037;-75
2021/05/12 00:12:53;;;;;;;22.35;19.90;;;11.70;87.70;;;;;;5008901;28;21944;-73
2021/05/12 00:15:23;;;;;;;21.30;18.38;;;11.70;87.70;;;;;;4994430;28;20050;-75
2021/05/12 00:17:50;;;;;;;21.55;17.10;;;11.70;87.80;;;;;;4996476;28;20500;-77
2021/05/12 00:20:24;;;;;;;20.27;17.95;;;11.60;87.70;;;;;;5012503;28;20056;-78
2021/05/12 00:22:58;;;;;;;21.47;18.13;;;11.60;87.70;;;;;;5017967;28;20550;-74
2021/05/12 00:25:24;;;;;;;21.98;19.55;;;11.60;87.80;;;;;;5021130;28;20481;-74
2021/05/12 00:27:50;;;;;;;19.60;17.58;;;11.60;87.70;;;;;;5013611;28;20485;-73
2021/05/12 00:30:21;;;;;;;22.25;19.83;;;11.50;87.50;;;;;;5018595;28;20049;-76
2021/05/12 00:32:46;;;;;;;19.45;17.08;;;11.50;87.80;;;;;;5018633;28;20076;-74
2021/05/12 00:35:13;;;;;;;18.70;16.23;;;11.50;87.70;;;;;;5016857;28;20042;-76
2021/05/12 00:37:40;;;;;;;17.83;15.93;;;11.40;87.70;;;;;;5017755;28;20037;-74
2021/05/12 00:40:07;;;;;;;19.42;14.10;;;11.40;87.70;;;;;;5008520;28;20388;-74
2021/05/12 00:42:33;;;;;;;16.45;13.48;;;11.40;87.60;;;;;;5018128;28;20442;-73
2021/05/12 00:44:59;;;;;;;20.50;13.65;;;11.30;87.60;;;;;;5024060;28;20052;-76
2021/05/12 00:47:30;;;;;;;15.90;12.25;;;11.30;87.50;;;;;;5018783;28;20041;-74
2021/05/12 00:49:56;;;;;;;17.45;12.38;;;11.20;87.40;;;;;;5028169;28;20037;-77
2021/05/12 00:52:23;;;;;;;14.57;11.50;;;11.20;87.20;;;;;;5018669;28;20069;-75
2021/05/12 00:54:49;;;;;;;18.38;12.15;;;11.20;87.20;;;;;;5019101;28;20045;-74
2021/05/12 00:57:15;;;;;;;16.15;12.10;;;11.20;87.10;;;;;;5018308;28;20506;-79
2021/05/12 00:59:42;;;;;;;14.48;11.50;;;11.10;87.00;;;;;;5014881;28;20038;-81
2021/05/12 01:02:09;;;;;;;15.88;12.25;;;11.20;87.00;;;;;;4997585;28;20042;-78
2021/05/12 01:04:36;;;;;;;17.05;11.48;;;11.10;86.70;;;;;;5010756;28;20199;-75
2021/05/12 01:07:01;;;;;;;15.30;11.10;;;11.10;86.70;;;;;;5016307;28;20040;-73
2021/05/12 01:09:27;;;;;;;15.13;9.32;;;11.00;86.70;;;;;;5018056;28;20099;-79
2021/05/12 01:11:53;;;;;;;14.50;9.23;;;11.00;86.60;;;;;;5017444;28;20045;-74
2021/05/12 01:14:20;;;;;;;13.50;8.20;;;10.90;86.50;;;;;;5016222;28;20044;-76
2021/05/12 01:16:47;;;;;;;12.80;7.15;;;10.90;86.40;;;;;;5016874;28;20076;-73
2021/05/12 01:19:13;;;;;;;13.90;7.43;;;10.80;86.20;;;;;;4996839;28;20132;-78
2021/05/12 01:21:39;;;;;;;12.07;6.63;;;10.80;86.20;;;;;;4997619;28;20116;-74
2021/05/12 01:24:06;;;;;;;10.32;5.85;;;10.80;86.20;;;;;;4996984;28;20474;-73
2021/05/12 01:26:32;;;;;;;10.98;5.15;;;10.80;86.00;;;;;;5015994;28;20490;-77
2021/05/12 01:28:57;;;;;;;11.57;4.82;;;10.80;85.70;;;;;;5018476;28;20497;-77
2021/05/12 01:31:30;;;;;;;12.27;4.57;;;10.80;85.60;;;;;;5017379;28;20080;-74
2021/05/12 01:33:56;;;;;;;8.20;3.90;;;10.80;85.50;;;;;;5016492;28;20069;-74
2021/05/12 01:36:22;;;;;;;11.60;4.05;;;10.80;85.50;;;;;;4999231;28;20482;-74
2021/05/12 01:38:50;;;;;;;14.77;4.53;;;10.80;85.00;;;;;;5017146;28;20041;-74
2021/05/12 01:41:17;;;;;;;10.02;3.90;;;10.80;84.70;;;;;;5018980;28;20041;-76
2021/05/12 01:43:43;;;;;;;10.93;3.88;;;10.80;84.80;;;;;;5014281;28;20382;-79
2021/05/12 01:46:09;;;;;;;9.57;3.75;;;10.70;84.90;;;;;;5016157;28;20033;-75
2021/05/12 01:48:36;;;;;;;9.65;4.20;;;10.70;84.80;;;;;;5016855;28;20060;-76
2021/05/12 01:51:03;;;;;;;11.02;4.22;;;10.80;85.00;;;;;;5016767;28;20426;-77
2021/05/12 01:53:29;;;;;;;10.35;3.85;;;10.70;84.90;;;;;;5020144;28;20030;-79
2021/05/12 01:55:55;;;;;;;9.32;3.80;;;10.60;84.80;;;;;;5025960;28;20045;-75
2021/05/12 01:58:22;;;;;;;9.20;3.90;;;10.60;84.90;;;;;;4996992;28;20217;-78
2021/05/12 02:00:50;;;;;;;9.90;3.78;;;10.60;84.90;;;;;;5016855;28;20037;-73
2021/05/12 02:03:18;;;;;;;10.02;4.20;;;10.60;85.10;;;;;;5018456;28;20477;-75
2021/05/12 02:05:45;;;;;;;10.85;4.28;;;10.50;85.30;;;;;;5013170;28;20072;-74
2021/05/12 02:08:13;;;;;;;9.98;4.35;;;10.50;85.10;;;;;;5005431;28;20363;-76
2021/05/12 02:10:43;;;;;;;11.25;3.85;;;10.50;85.10;;;;;;5014165;28;20125;-76
2021/05/12 02:13:10;;;;;;;9.43;3.58;;;10.50;85.10;;;;;;5016187;28;20049;-75
2021/05/12 02:15:36;;;;;;;9.93;3.22;;;10.50;85.10;;;;;;5029336;28;20060;-75
2021/05/12 02:18:02;;;;;;;9.35;3.40;;;10.50;85.20;;;;;;5009365;28;20030;-75
2021/05/12 02:20:32;;;;;;;8.98;2.80;;;10.40;85.20;;;;;;5004857;28;20038;-73
2021/05/12 02:23:00;;;;;;;7.43;2.95;;;10.40;85.30;;;;;;4998068;28;20038;-75
2021/05/12 02:25:26;;;;;;;9.05;3.17;;;10.30;85.40;;;;;;5005235;28;20044;-74
2021/05/12 02:27:52;;;;;;;10.98;3.58;;;10.30;85.30;;;;;;5001474;28;20050;-75
2021/05/12 02:30:18;;;;;;;9.05;2.97;;;10.20;85.30;;;;;;4998771;28;20050;-74
2021/05/12 02:32:45;;;;;;;10.52;2.97;;;10.20;85.30;;;;;;4996935;28;20078;-77
2021/05/12 02:35:13;;;;;;;8.23;2.58;;;10.20;85.40;;;;;;5008071;28;20033;-74
2021/05/12 02:37:39;;;;;;;11.25;3.10;;;10.20;85.50;;;;;;5006052;28;20454;-73
2021/05/12 02:40:06;;;;;;;5.57;2.65;;;10.10;85.40;;;;;;5014395;28;20033;-75
2021/05/12 02:42:32;;;;;;;8.85;3.05;;;10.10;85.60;;;;;;5011042;28;20057;-75
2021/05/12 02:44:58;;;;;;;7.55;3.17;;;10.10;85.70;;;;;;5004865;28;20473;-78
2021/05/12 02:47:24;;;;;;;8.32;3.03;;;10.10;85.70;;;;;;5017966;28;20049;-80
2021/05/12 02:49:50;;;;;;;9.00;3.47;;;10.10;85.90;;;;;;5020356;28;20052;-74
2021/05/12 02:52:16;;;;;;;8.52;3.83;;;10.10;85.80;;;;;;5012289;28;20045;-74
2021/05/12 02:54:42;;;;;;;8.05;3.60;;;10.00;85.90;;;;;;5020341;28;20067;-76
2021/05/12 02:57:08;;;;;;;10.82;3.90;;;10.00;85.90;;;;;;5019353;28;20046;-73
2021/05/12 02:59:34;;;;;;;12.43;3.97;;;9.90;86.10;;;;;;5006985;28;20048;-74
2021/05/12 03:02:00;;;;;;;11.25;4.70;;;10.00;86.20;;;;;;5000190;28;20022;-75
2021/05/12 03:04:25;;;;;;;10.45;4.10;;;9.90;86.30;;;;;;5019985;28;20124;-74
2021/05/12 03:06:51;;;;;;;9.70;4.30;;;10.00;86.40;;;;;;5013733;28;20057;-75
2021/05/12 03:09:17;;;;;;;14.60;5.22;;;10.00;86.60;;;;;;5010215;28;20037;-74
2021/05/12 03:11:43;;;;;;;10.88;5.45;;;10.00;86.70;;;;;;5023636;28;20037;-73
2021/05/12 03:14:10;;;;;;;12.45;5.28;;;10.10;86.80;;;;;;5029973;28;20549;-74
2021/05/12 03:16:36;;;;;;;11.73;5.25;;;10.10;86.90;;;;;;5000113;28;20053;-74
2021/05/12 03:19:03;;;;;;;13.77;6.15;;;10.20;86.80;;;;;;5014913;28;20045;-75
2021/05/12 03:21:31;;;;;;;12.95;5.82;;;10.30;86.80;;;;;;5020950;28;20362;-75
2021/05/12 03:23:57;;;;;;;11.20;5.57;;;10.30;86.80;;;;;;5029237;28;20091;-76
2021/05/12 03:26:23;;;;;;;12.15;5.50;;;10.30;86.80;;;;;;5023746;28;20037;-76
2021/05/12 03:28:49;;;;;;;15.43;5.35;;;10.40;86.60;;;;;;5030560;28;20041;-74
2021/05/12 03:31:14;;;;;;;13.27;6.03;;;10.40;86.60;;;;;;5033397;28;20057;-74
2021/05/12 03:33:41;;;;;;;9.43;4.95;;;10.40;86.50;;;;;;5005146;28;20042;-76
2021/05/12 03:36:08;;;;;;;11.18;5.45;;;10.40;86.30;;;;;;5008582;28;20033;-74
2021/05/12 03:38:34;;;;;;;10.15;4.97;;;10.40;86.30;;;;;;5022750;28;20049;-73
2021/05/12 03:41:00;;;;;;;14.93;5.70;;;10.40;86.20;;;;;;5011414;28;20080;-75
2021/05/12 03:43:26;;;;;;;9.38;5.13;;;10.30;86.00;;;;;;5013228;28;20504;-73
2021/05/12 03:45:52;;;;;;;13.23;5.70;;;10.20;86.00;;;;;;5020851;28;20129;-73
2021/05/12 03:48:17;;;;;;;9.75;5.20;;;10.20;86.20;;;;;;5029918;28;20037;-74
2021/05/12 03:50:43;;;;;;;11.73;5.53;;;10.10;86.20;;;;;;5027997;28;20050;-73
2021/05/12 03:53:09;;;;;;;9.68;4.53;;;10.10;86.20;;;;;;5023879;28;20068;-73
2021/05/12 03:55:36;;;;;;;9.57;4.95;;;10.10;86.20;;;;;;5025302;28;20049;-73
2021/05/12 03:58:02;;;;;;;9.27;5.20;;;10.10;86.30;;;;;;5020240;28;20029;-73
2021/05/12 04:00:28;;;;;;;13.10;6.60;;;10.00;86.30;;;;;;5015176;28;20477;-73
2021/05/12 04:02:53;;;;;;;12.35;7.40;;;10.00;86.30;;;;;;5026316;28;20064;-72
2021/05/12 04:05:20;;;;;;;14.63;6.80;;;10.00;86.40;;;;;;5017494;28;20039;-73
2021/05/12 04:07:45;;;;;;;11.80;6.90;;;10.00;86.50;;;;;;5005392;28;20112;-73
2021/05/12 04:10:11;;;;;;;11.98;7.70;;;9.90;86.50;;;;;;5016780;28;20113;-74
2021/05/12 04:12:38;;;;;;;12.75;6.75;;;9.90;86.50;;;;;;5023294;28;20042;-74
2021/05/12 04:15:05;;;;;;;11.32;6.05;;;10.00;86.50;;;;;;5021863;28;20040;-74
2021/05/12 04:17:31;;;;;;;12.10;6.53;;;10.00;86.40;;;;;;5024857;28;20041;-74
2021/05/12 04:19:57;;;;;;;11.95;6.28;;;9.90;86.50;;;;;;5006160;28;20519;-75
2021/05/12 04:22:23;;;;;;;11.98;6.32;;;10.00;86.30;;;;;;5010006;28;20042;-76
2021/05/12 04:24:49;;;;;;;11.02;6.32;;;10.00;86.30;;;;;;4999610;28;20049;-76
2021/05/12 04:27:17;;;;;;;12.27;6.15;;;10.00;86.10;;;;;;5010495;28;20036;-73
2021/05/12 04:29:43;;;;;;;12.50;5.05;;;10.10;86.10;;;;;;5021049;28;20417;-74
2021/05/12 04:32:08;;;;;;;11.63;5.28;;;10.10;86.10;;;;;;5025425;28;20496;-75
2021/05/12 04:34:34;;;;;;;9.77;5.15;;;10.10;86.20;;;;;;5014913;28;20034;-75
2021/05/12 04:37:00;;;;;;;10.85;5.10;;;10.20;86.00;;;;;;5019415;28;20062;-74
2021/05/12 04:39:26;;;;;;;11.00;5.25;;;10.20;85.80;;;;;;5005961;28;20099;-74
2021/05/12 04:41:52;;;;;;;8.93;4.70;;;10.20;85.60;;;;;;5022647;28;20022;-76
2021/05/12 04:44:18;;;;;;;9.75;4.85;;;10.30;85.80;;;;;;5021893;28;20034;-75
2021/05/12 04:46:44;;;;;;;10.35;5.65;;;10.40;85.50;;;;;;5021175;28;20049;-74
2021/05/12 04:49:12;;;;;;;12.13;5.25;;;10.50;85.10;;;;;;5014272;28;20481;-77
2021/05/12 04:51:37;;;;;;;8.98;4.82;;;10.50;84.90;;;;;;5016248;28;20049;-73
2021/05/12 04:54:07;;;;;;;12.05;6.47;;;10.50;84.80;;;;;;5001090;28;20492;-74
2021/05/12 04:56:34;;;;;;;11.98;6.25;;;10.70;84.60;;;;;;5019569;28;20046;-74
2021/05/12 04:59:00;;;;;;;9.27;5.20;;;10.80;84.40;;;;;;5014913;28;20034;-75
2021/05/12 05:01:26;;;;;;;9.70;4.82;;;11.00;84.20;;;;;;5020768;28;20387;-73
2021/05/12 05:03:51;;;;;;;12.50;5.40;;;11.10;83.90;;;;;;5013785;28;20042;-73
2021/05/12 05:06:17;;;;;;;10.90;4.65;;;11.10;83.30;;;;;;5014828;28;20042;-75
2021/05/12 05:08:43;;;;;;;11.93;5.13;;;11.30;83.30;;;;;;5019558;28;20157;-73
2021/05/12 05:11:09;;;;;;;10.98;4.97;;;11.40;82.60;;;;;;5007080;28;20062;-73
2021/05/12 05:13:35;;;;;;;12.38;5.25;;;11.40;82.70;;;;;;5006696;28;20400;-74
2021/05/12 05:16:01;;;;;;;13.65;4.78;;;11.40;82.70;;;;;;5026734;28;20053;-74
2021/05/12 05:18:27;;;;;;;10.65;4.35;;;11.40;82.60;;;;;;5023337;28;20049;-75
2021/05/12 05:20:54;;;;;;;10.35;4.85;;;11.60;83.40;;;;;;5025835;28;20033;-73
2021/05/12 05:23:20;;;;;;;13.70;4.20;;;12.90;80.30;;;;;;5033342;28;20028;-75
2021/05/12 05:25:46;;;;;;;7.15;3.20;;;14.40;74.20;;;;;;5011686;28;20362;-78
2021/05/12 05:28:12;;;;;;;8.65;3.35;;;15.70;70.80;;;;;;5020040;28;20065;-74
2021/05/12 05:30:38;;;;;;;11.60;3.70;;;16.80;66.00;;;;;;5023697;28;20075;-74
2021/05/12 05:33:03;;;;;;;10.13;3.53;;;17.20;63.20;;;;;;5014774;28;20045;-73
2021/05/12 05:35:29;;;;;;;10.60;3.53;;;17.00;63.60;;;;;;5018561;28;20264;-75
2021/05/12 05:37:55;;;;;;;8.52;3.22;;;16.30;64.00;;;;;;5017169;28;20084;-77
2021/05/12 05:40:21;;;;;;;9.75;3.50;;;15.50;66.80;;;;;;5015934;28;20055;-71
2021/05/12 05:42:46;;;;;;;9.32;3.00;;;15.60;68.40;;;;;;5012079;28;20033;-72
2021/05/12 05:45:12;;;;;;;11.30;3.30;;;16.60;65.50;;;;;;5017613;28;20046;-71
2021/05/12 05:47:38;;;;;;;7.45;3.03;;;17.40;62.10;;;;;;5015937;28;20048;-72
2021/05/12 05:50:06;;;;;;;7.63;2.70;;;18.00;60.30;;;;;;5016166;28;20425;-70
2021/05/12 05:52:31;;;;;;;7.20;2.55;;;18.60;58.20;;;;;;5032554;28;20038;-69
2021/05/12 05:54:58;;;;;;;11.52;2.90;;;18.40;58.30;;;;;;5015620;28;20035;-70
2021/05/12 05:57:24;;;;;;;8.35;3.22;;;17.80;59.80;;;;;;5014547;28;20593;-72
2021/05/12 05:59:50;;;;;;;10.77;2.97;;;17.10;61.10;;;;;;5018926;28;20049;-70
2021/05/12 06:02:15;;;;;;;6.72;2.60;;;16.30;64.10;;;;;;5022446;28;20026;-70
2021/05/12 06:04:41;;;;;;;8.20;2.72;;;15.70;67.00;;;;;;5005094;28;20046;-70
2021/05/12 06:07:07;;;;;;;12.00;3.67;;;15.50;68.00;;;;;;5006242;28;20033;-70
2021/05/12 06:09:33;;;;;;;10.73;2.90;;;15.30;68.10;;;;;;5023145;28;20069;-70
2021/05/12 06:11:59;;;;;;;10.82;3.20;;;15.10;69.20;;;;;;5024305;28;20033;-71
2021/05/12 06:14:24;;;;;;;11.45;3.60;;;15.00;71.00;;;;;;5006740;28;20576;-71
2021/05/12 06:16:51;;;;;;;10.93;3.35;;;14.80;70.10;;;;;;5018307;28;20040;-70
2021/05/12 06:19:16;;;;;;;10.00;3.30;;;14.60;70.60;;;;;;5022225;28;20113;-70
2021/05/12 06:21:42;;;;;;;9.70;3.20;;;14.50;71.10;;;;;;5026199;28;20124;-71
2021/05/12 06:24:08;;;;;;;9.75;3.42;;;14.40;71.80;;;;;;5019960;28;20230;-74
2021/05/12 06:26:37;;;;;;;10.27;3.15;;;14.40;72.40;;;;;;5027083;28;20052;-71
2021/05/12 06:29:03;;;;;;;13.50;3.40;;;14.40;72.10;;;;;;5026957;28;20039;-71
2021/05/12 06:31:29;;;;;;;12.05;3.35;;;14.50;72.50;;;;;;5033416;28;20041;-72
2021/05/12 06:33:55;;;;;;;11.80;3.15;;;14.50;72.50;;;;;;5010296;28;20034;-74
2021/05/12 06:36:21;;;;;;;10.55;3.80;;;14.40;72.40;;;;;;5003478;28;20050;-71
2021/05/12 06:38:47;;;;;;;10.00;3.72;;;14.20;73.30;;;;;;5009672;28;20536;-73
2021/05/12 06:41:13;;;;;;;10.60;3.80;;;14.50;73.50;;;;;;5013067;28;20366;-73
2021/05/12 06:43:39;;;;;;;10.35;3.63;;;14.60;73.00;;;;;;5024692;28;20298;-73
2021/05/12 06:46:04;;;;;;;12.82;3.60;;;14.70;72.20;;;;;;5024398;28;20037;-70
2021/05/12 06:48:30;;;;;;;11.02;3.10;;;14.70;71.30;;;;;;5022807;28;20038;-70
2021/05/12 06:50:56;;;;;;;11.50;3.35;;;14.60;71.10;;;;;;5022430;28;20054;-70
2021/05/12 06:53:29;;;;;;;12.60;4.05;;;14.50;71.30;;;;;;5022829;28;20104;-70
2021/05/12 06:55:56;;;;;;;11.35;4.15;;;14.50;71.50;;;;;;5024931;28;20045;-72
2021/05/12 06:58:22;;;;;;;13.27;3.90;;;14.60;72.00;;;;;;5019390;28;20034;-71
2021/05/12 07:00:50;;;;;;;12.07;3.72;;;14.60;72.30;;;;;;5021154;28;20038;-70
2021/05/12 07:03:16;;;;;;;12.27;3.53;;;14.60;72.20;;;;;;5020400;28;20042;-73
2021/05/12 07:05:43;;;;;;;10.55;3.67;;;14.90;72.00;;;;;;5020556;28;20388;-70
2021/05/12 07:08:08;;;;;;;9.73;3.58;;;15.10;71.90;;;;;;5023701;28;20037;-71
2021/05/12 07:10:34;;;;;;;13.65;4.10;;;15.40;71.10;;;;;;5024235;28;20397;-70
2021/05/12 07:13:00;;;;;;;10.93;4.00;;;15.60;69.50;;;;;;5020668;28;20469;-71
2021/05/12 07:15:25;;;;;;;11.80;3.78;;;15.80;69.20;;;;;;5017034;28;20037;-70
2021/05/12 07:17:51;;;;;;;12.75;3.50;;;15.90;66.70;;;;;;5024223;28;20033;-75
2021/05/12 07:20:17;;;;;;;10.20;2.90;;;15.90;66.60;;;;;;5028516;28;20044;-71
2021/05/12 07:22:42;;;;;;;10.75;3.13;;;15.80;66.30;;;;;;5026020;28;20033;-72
2021/05/12 07:25:09;;;;;;;11.85;3.13;;;15.60;66.00;;;;;;5013044;28;20030;-71
2021/05/12 07:27:35;;;;;;;11.50;3.40;;;15.70;68.00;;;;;;5005410;28;20033;-71
2021/05/12 07:30:01;;;;;;;8.90;3.45;;;15.90;68.00;;;;;;5010691;28;20057;-71
2021/05/12 07:32:27;;;;;;;14.25;3.80;;;16.10;65.60;;;;;;5024049;28;20033;-73
2021/05/12 07:34:52;;;;;;;9.30;3.10;;;16.30;65.50;;;;;;5021432;28;20037;-71
2021/05/12 07:37:19;;;;;;;10.95;3.42;;;16.50;65.00;;;;;;5031422;28;20034;-72
2021/05/12 07:39:45;;;;;;;10.07;2.88;;;16.60;63.60;;;;;;5022458;28;20508;-71
2021/05/12 07:42:12;;;;;;;10.07;3.53;;;16.60;64.40;;;;;;5024850;28;20029;-71
2021/05/12 07:44:38;;;;;;;12.70;3.55;;;16.80;64.20;;;;;;5003967;28;20034;-75
2021/05/12 07:47:03;;;;;;;11.60;2.90;;;17.20;62.60;;;;;;5011218;28;20061;-71
2021/05/12 07:49:29;;;;;;;12.13;2.78;;;17.10;61.30;;;;;;5011829;28;20033;-70
2021/05/12 07:51:56;;;;;;;9.25;2.67;;;17.30;62.60;;;;;;5020240;28;20033;-71
2021/05/12 07:54:21;;;;;;;14.60;3.00;;;17.20;60.20;;;;;;5030820;28;20455;-70
2021/05/12 07:56:47;;;;;;;9.90;2.28;;;17.30;59.70;;;;;;5027721;28;20515;-71
2021/05/12 07:59:15;;;;;;;11.75;3.00;;;17.40;60.00;;;;;;5025091;28;20083;-71
2021/05/12 08:01:43;;;;;;;9.45;2.70;;;17.60;59.80;;;;;;5000984;28;20041;-71
2021/05/12 08:04:09;;;;;;;10.25;2.70;;;17.60;58.30;;;;;;5018421;28;20037;-71
2021/05/12 08:06:35;;;;;;;10.38;2.83;;;17.50;57.10;;;;;;5019027;28;20057;-71
2021/05/12 08:09:06;;;;;;;9.40;2.58;;;17.50;59.20;;;;;;5028740;28;20049;-72
2021/05/12 08:11:31;;;;;;;12.27;2.65;;;17.60;58.30;;;;;;4998899;28;20103;-70
2021/05/12 08:13:57;;;;;;;12.05;2.60;;;17.40;58.20;;;;;;5007669;28;20375;-71
2021/05/12 08:16:23;;;;;;;11.15;2.28;;;17.10;57.90;;;;;;5016268;28;20072;-70
2021/05/12 08:18:48;;;;;;;9.80;2.28;;;17.30;59.30;;;;;;5015205;28;20030;-71
2021/05/12 08:21:14;;;;;;;12.95;2.97;;;17.50;59.10;;;;;;5019958;28;20042;-71
2021/05/12 08:23:40;;;;;;;12.35;2.95;;;17.80;59.20;;;;;;5013073;28;20049;-73
2021/05/12 08:26:05;;;;;;;11.85;2.90;;;17.90;57.70;;;;;;5039580;28;20037;-71
2021/05/12 08:28:31;;;;;;;12.52;3.30;;;18.00;58.00;;;;;;5026659;28;20046;-73
2021/05/12 08:30:57;;;;;;;13.55;2.90;;;18.10;56.60;;;;;;5030795;28;20124;-72
2021/05/12 08:33:24;;;;;;;16.33;3.65;;;18.20;56.30;;;;;;5000123;28;20033;-72
2021/05/12 08:35:50;;;;;;;10.93;2.50;;;18.00;55.00;;;;;;5028688;28;20049;-72
2021/05/12 08:38:19;;;;;;;10.82;2.55;;;18.10;57.20;;;;;;5029974;28;20118;-72
2021/05/12 08:40:46;;;;;;;11.60;3.03;;;18.10;55.90;;;;;;5027337;28;20033;-72
2021/05/12 08:43:13;;;;;;;12.45;2.90;;;18.10;55.10;;;;;;5007562;28;20065;-71
2021/05/12 08:45:42;;;;;;;11.40;3.22;;;18.00;54.50;;;;;;5021636;28;20107;-71
2021/05/12 08:48:11;;;;;;;8.95;2.70;;;18.30;55.60;;;;;;5009029;28;20030;-71
2021/05/12 08:50:38;;;;;;;8.98;2.75;;;18.70;54.50;;;;;;5023746;28;20038;-71
2021/05/12 08:53:05;;;;;;;10.65;3.00;;;19.00;55.10;;;;;;5026955;28;20602;-71
2021/05/12 08:55:32;;;;;;;9.77;2.83;;;18.80;55.10;;;;;;5016452;28;20088;-70
2021/05/12 08:57:57;;;;;;;9.82;2.60;;;18.80;53.80;;;;;;5027438;28;20040;-70
2021/05/12 09:00:23;;;;;;;10.10;3.03;;;18.60;54.80;;;;;;5016402;28;20037;-71
2021/05/12 09:02:50;;;;;;;11.10;3.10;;;18.40;53.60;;;;;;5026431;28;20369;-71
2021/05/12 09:05:16;;;;;;;10.20;2.55;;;18.40;54.00;;;;;;5012700;28;20105;-71
2021/05/12 09:07:41;;;;;;;12.30;3.15;;;18.30;54.70;;;;;;5016371;28;20454;-69
2021/05/12 09:10:08;;;;;;;11.55;2.80;;;18.10;55.40;;;;;;5022446;28;20026;-72
2021/05/12 09:12:53;;;;;;;14.70;2.92;;;18.50;55.20;;;;;;5019361;28;20037;-71
2021/05/12 09:15:21;;;;;;;9.40;2.58;;;19.00;55.20;;;;;;5023933;28;20065;-70
2021/05/12 09:17:49;;;;;;;12.82;2.30;;;19.30;53.20;;;;;;5017691;28;20612;-68
2021/05/12 09:20:24;;;;;;;10.35;2.40;;;19.30;51.00;;;;;;5021639;28;20029;-68
2021/05/12 09:23:02;;;;;;;11.43;2.85;;;19.60;50.80;;;;;;5015042;28;20497;-75
2021/05/12 09:25:29;;;;;;;10.32;2.58;;;19.90;50.30;;;;;;5022877;28;20034;-69
2021/05/12 09:28:09;;;;;;;12.18;3.00;;;19.70;50.20;;;;;;5020295;28;20042;-71
2021/05/12 09:30:38;;;;;;;9.38;2.55;;;19.30;50.90;;;;;;5015037;28;20485;-71
2021/05/12 09:33:05;;;;;;;9.30;2.20;;;19.40;51.10;;;;;;5012465;28;20038;-70
2021/05/12 09:35:31;;;;;;;11.43;2.53;;;19.30;49.90;;;;;;4994996;28;20049;-72
2021/05/12 09:37:56;;;;;;;9.50;2.45;;;19.20;49.00;;;;;;4999111;28;20038;-70
2021/05/12 09:40:23;;;;;;;11.88;2.38;;;19.50;49.80;;;;;;5000404;28;20049;-72
2021/05/12 09:43:00;;;;;;;7.63;2.22;;;19.40;50.60;;;;;;5002971;28;20129;-70
2021/05/12 09:45:31;;;;;;;10.90;2.83;;;19.60;50.60;;;;;;5000327;28;20038;-70
2021/05/12 09:47:59;;;;;;;7.43;2.53;;;19.80;48.50;;;;;;5018919;28;20064;-69
2021/05/12 09:50:36;;;;;;;10.75;2.70;;;19.60;48.80;;;;;;5026372;28;20026;-70
2021/05/12 09:53:04;;;;;;;11.45;2.95;;;19.60;48.40;;;;;;5027756;28;20551;-70
2021/05/12 09:55:39;;;;;;;9.75;2.92;;;19.50;48.30;;;;;;5025215;28;20054;-71
2021/05/12 09:58:13;;;;;;;10.00;2.70;;;19.50;48.70;;;;;;5016975;28;20084;-73
2021/05/12 10:00:43;;;;;;;10.05;3.20;;;19.20;49.70;;;;;;5022907;28;20145;-69
2021/05/12 10:03:10;;;;;;;10.43;2.60;;;19.10;50.60;;;;;;5018642;28;20033;-70
2021/05/12 10:06:00;;;;;;;9.70;2.60;;;18.80;51.40;;;;;;5023600;28;20033;-69
2021/05/12 10:08:34;;;;;;;10.82;2.53;;;19.30;51.00;;;;;;5017476;28;20026;-69
2021/05/12 10:11:02;;;;;;;8.75;2.53;;;19.60;50.00;;;;;;5029221;28;20036;-69
2021/05/12 10:13:30;;;;;;;7.90;2.30;;;19.60;49.60;;;;;;5013374;28;20851;-69
2021/05/12 10:15:56;;;;;;;10.80;2.30;;;19.00;51.20;;;;;;5005525;28;20113;-69
2021/05/12 10:18:22;;;;;;;10.85;2.17;;;18.60;53.00;;;;;;5027019;28;20128;-70
2021/05/12 10:20:48;;;;;;;13.20;2.58;;;18.20;53.20;;;;;;5033542;28;20163;-70
2021/05/12 10:23:13;;;;;;;5.82;1.73;;;17.80;52.50;;;;;;5037143;28;20022;-69
2021/05/12 10:25:40;;;;;;;5.90;1.58;;;17.80;51.10;;;;;;5025315;28;20091;-69
2021/05/12 10:28:08;;;;;;;5.40;1.50;;;18.00;51.10;;;;;;5027920;28;20044;-69
2021/05/12 10:30:34;;;;;;;6.40;2.03;;;18.30;48.50;;;;;;5032480;28;20072;-69
2021/05/12 10:33:00;;;;;;;6.68;1.73;;;18.40;46.80;;;;;;5031987;28;20057;-70
2021/05/12 10:35:38;;;;;;;7.05;1.67;;;18.40;46.50;;;;;;5012292;28;20485;-72
2021/05/12 10:38:04;;;;;;;5.05;1.35;;;18.60;46.00;;;;;;5016306;28;20080;-70
2021/05/12 10:40:38;;;;;;;7.50;1.70;;;18.90;45.70;;;;;;5023487;28;20047;-71
2021/05/12 10:43:32;;;;;;;7.70;2.20;;;18.90;45.30;;;;;;5029210;28;20493;-71
2021/05/12 10:46:16;;;;;;;8.70;2.10;;;19.10;46.30;;;;;;5029597;28;20030;-75
2021/05/12 10:48:48;;;;;;;7.75;1.98;;;19.10;47.10;;;;;;5028867;28;20045;-73
2021/05/12 10:51:20;;;;;;;7.38;2.30;;;19.00;46.80;;;;;;5023823;28;20565;-71
2021/05/12 10:53:48;;;;;;;7.75;1.80;;;18.90;46.80;;;;;;5023411;28;20095;-72
2021/05/12 10:56:15;;;;;;;7.43;1.92;;;18.80;46.70;;;;;;5015122;28;20033;-69
2021/05/12 10:59:00;;;;;;;7.68;2.10;;;19.10;47.90;;;;;;5018921;28;20045;-71
2021/05/12 11:01:54;;;;;;;7.05;2.20;;;19.10;46.60;;;;;;5018045;28;20046;-71
2021/05/12 11:04:25;;;;;;;10.38;2.83;;;19.70;45.20;;;;;;5019510;28;20113;-71
2021/05/12 11:06:50;;;;;;;9.27;2.65;;;20.00;45.70;;;;;;5027502;28;20079;-71
2021/05/12 11:09:18;;;;;;;11.65;2.83;;;19.90;43.90;;;;;;5025217;28;20440;-72
2021/05/12 11:11:44;;;;;;;8.52;2.10;;;20.30;45.50;;;;;;5026866;28;20033;-75
2021/05/12 11:14:29;;;;;;;9.63;2.50;;;20.60;46.70;;;;;;5022129;28;20056;-71
2021/05/12 11:17:15;;;;;;;11.77;2.72;;;21.10;44.50;;;;;;5020228;28;20124;-73
2021/05/12 11:19:44;;;;;;;10.55;2.90;;;21.60;43.90;;;;;;4997242;28;20053;-71
2021/05/12 11:22:32;;;;;;;10.43;2.40;;;21.50;44.30;;;;;;4994963;28;20043;-74
2021/05/12 11:25:28;;;;;;;10.32;2.50;;;20.90;44.60;;;;;;4997735;28;20041;-73
2021/05/12 11:33:26;;;;;;;10.88;3.08;;;19.50;47.40;;;;;;5023896;28;20396;-75
2021/05/12 11:36:01;;;;;;;8.57;2.38;;;19.40;47.60;;;;;;5020393;28;20045;-71
2021/05/12 11:38:28;;;;;;;10.43;3.30;;;19.30;48.10;;;;;;5011682;28;20034;-77
2021/05/12 11:41:03;;;;;;;9.60;2.35;;;19.60;49.40;;;;;;5025591;28;20033;-71
2021/05/12 11:43:52;;;;;;;9.90;2.67;;;20.50;47.50;;;;;;5017209;28;20437;-75
2021/05/12 11:46:24;;;;;;;8.98;2.10;;;20.80;45.10;;;;;;5014970;28;20544;-71
2021/05/12 11:48:53;;;;;;;9.60;2.63;;;20.60;43.90;;;;;;5018442;28;20029;-71
2021/05/12 11:51:32;;;;;;;9.07;2.17;;;20.60;42.40;;;;;;5013627;28;20069;-71
2021/05/12 11:53:59;;;;;;;6.90;2.25;;;20.60;43.10;;;;;;5011907;28;20040;-72
2021/05/12 11:56:25;;;;;;;11.45;2.33;;;20.00;42.00;;;;;;4996815;28;20457;-71
2021/05/12 11:58:55;;;;;;;8.48;2.65;;;19.70;43.00;;;;;;4997715;28;20404;-72
2021/05/12 12:01:21;;;;;;;8.38;2.10;;;19.70;44.70;;;;;;4996002;28;20042;-71
2021/05/12 12:03:54;;;;;;;7.78;2.20;;;19.60;43.80;;;;;;4995702;28;20022;-71
2021/05/12 12:06:19;;;;;;;9.05;2.50;;;19.50;43.50;;;;;;4996107;28;20411;-76
2021/05/12 12:08:45;;;;;;;9.10;2.38;;;19.10;43.20;;;;;;4996410;28;20053;-71
2021/05/12 12:11:13;;;;;;;7.22;2.42;;;19.20;44.30;;;;;;4997225;28;20366;-71
2021/05/12 12:13:41;;;;;;;11.55;2.20;;;19.40;43.70;;;;;;4992049;28;20117;-75
2021/05/12 12:16:09;;;;;;;6.60;1.90;;;19.20;44.50;;;;;;4992859;28;20037;-71
2021/05/12 12:18:38;;;;;;;8.20;2.17;;;19.10;43.70;;;;;;4997118;28;20064;-71
2021/05/12 12:21:05;;;;;;;11.93;2.20;;;19.20;43.90;;;;;;4992265;28;20037;-75
2021/05/12 12:23:39;;;;;;;9.10;1.85;;;19.40;44.30;;;;;;4992992;28;20059;-72
2021/05/12 12:26:16;;;;;;;8.70;2.05;;;19.40;43.50;;;;;;4990298;28;20405;-71
2021/05/12 12:29:01;;;;;;;9.63;2.10;;;19.50;43.20;;;;;;5001664;28;20373;-71
2021/05/12 12:31:29;;;;;;;15.18;2.88;;;19.80;44.60;;;;;;5019550;28;20053;-72
2021/05/12 12:34:11;;;;;;;11.98;2.42;;;20.30;43.80;;;;;;5016737;28;20064;-70
2021/05/12 12:36:52;;;;;;;11.50;2.80;;;20.60;43.20;;;;;;5019825;28;20042;-74
2021/05/12 12:39:19;;;;;;;12.77;3.13;;;20.60;44.50;;;;;;5021221;28;20026;-71
2021/05/12 12:41:52;;;;;;;11.75;2.50;;;20.50;42.40;;;;;;5019740;28;20044;-71
2021/05/12 12:44:19;;;;;;;9.32;2.25;;;20.80;41.30;;;;;;5020359;28;20108;-71
2021/05/12 12:46:57;;;;;;;10.63;2.63;;;20.60;40.60;;;;;;5020101;28;20033;-72
2021/05/12 12:49:36;;;;;;;10.13;2.30;;;20.70;41.60;;;;;;5019078;28;20112;-73